Time;durP1;ratioP1;P1;durP2;ratioP2;P2;SDS_P1;SDS_P2;PMS_P1;PMS_P2;Temp;Humidity;BMP_temperature;BMP_pressure;BME280_temperature;BME280_humidity;BME280_pressure;Samples;Min_cycle;Max_cycle;Signal;HPM_P1;HPM_P2
2023/11/07 00:02:17;;;;;;;3.88;2.45;;;8.80;99.90;;;;;;5082973;28;20307;-62
2023/11/07 00:04:43;;;;;;;6.97;2.90;;;8.80;99.90;;;;;;5083991;28;20209;-60
2023/11/07 00:07:10;;;;;;;3.10;2.15;;;8.80;99.90;;;;;;5081618;28;20200;-62
2023/11/07 00:09:37;;;;;;;5.45;2.63;;;8.80;99.90;;;;;;5081218;28;20205;-61
2023/11/07 00:12:05;;;;;;;4.68;2.50;;;8.80;99.90;;;;;;5081508;28;20236;-61
2023/11/07 00:14:32;;;;;;;6.07;2.30;;;8.70;99.90;;;;;;5081022;28;20205;-60
2023/11/07 00:17:00;;;;;;;5.00;2.40;;;8.70;99.90;;;;;;5078978;28;20221;-63
2023/11/07 00:19:27;;;;;;;5.28;2.60;;;8.70;99.90;;;;;;5084635;28;20232;-61
2023/11/07 00:21:54;;;;;;;5.63;2.30;;;8.70;99.90;;;;;;5082264;28;20220;-61
2023/11/07 00:24:21;;;;;;;4.57;2.25;;;8.70;99.90;;;;;;5081389;28;20201;-62
2023/11/07 00:26:48;;;;;;;6.65;2.65;;;8.70;99.90;;;;;;5079677;28;20203;-61
2023/11/07 00:29:15;;;;;;;6.22;2.85;;;8.70;99.90;;;;;;5081627;28;20207;-61
2023/11/07 00:31:42;;;;;;;4.88;1.90;;;8.70;99.90;;;;;;5080829;28;20248;-62
2023/11/07 00:34:11;;;;;;;6.88;2.60;;;8.70;99.90;;;;;;5080669;28;20205;-60
2023/11/07 00:36:38;;;;;;;7.93;2.67;;;8.60;99.90;;;;;;5079592;28;20212;-62
2023/11/07 00:39:06;;;;;;;4.85;2.25;;;8.60;99.90;;;;;;5078682;28;20211;-61
2023/11/07 00:41:33;;;;;;;4.03;2.30;;;8.70;99.90;;;;;;5078149;28;20201;-62
2023/11/07 00:44:01;;;;;;;5.10;2.38;;;8.70;99.90;;;;;;5078590;28;20211;-61
2023/11/07 00:46:28;;;;;;;4.65;2.35;;;8.70;99.90;;;;;;5078366;28;20258;-61
2023/11/07 00:48:55;;;;;;;8.50;2.45;;;8.70;99.90;;;;;;5078250;28;20212;-61
2023/11/07 00:51:23;;;;;;;2.65;2.10;;;8.70;99.90;;;;;;5078051;28;20204;-61
2023/11/07 00:53:50;;;;;;;5.78;1.98;;;8.70;99.90;;;;;;5078815;28;20197;-60
2023/11/07 00:56:17;;;;;;;2.50;2.10;;;8.70;99.90;;;;;;5077126;28;20213;-60
2023/11/07 00:58:46;;;;;;;3.03;2.17;;;8.70;99.90;;;;;;5076470;28;20710;-62
2023/11/07 01:01:16;;;;;;;7.45;2.30;;;8.70;99.90;;;;;;5077066;28;20284;-62
2023/11/07 01:03:42;;;;;;;4.93;2.22;;;8.70;99.90;;;;;;5077052;28;20201;-66
2023/11/07 01:06:09;;;;;;;6.47;2.30;;;8.70;99.90;;;;;;5077257;28;20296;-62
2023/11/07 01:08:37;;;;;;;4.65;1.85;;;8.80;99.90;;;;;;5077282;28;20223;-61
2023/11/07 01:11:05;;;;;;;4.68;2.03;;;8.80;99.90;;;;;;5077318;28;20607;-61
2023/11/07 01:13:31;;;;;;;5.25;2.28;;;8.80;99.90;;;;;;5077905;28;20247;-61
2023/11/07 01:15:58;;;;;;;3.15;1.95;;;8.80;99.90;;;;;;5076892;28;20201;-61
2023/11/07 01:18:25;;;;;;;7.43;2.00;;;8.80;99.90;;;;;;5076641;28;20232;-61
2023/11/07 01:20:52;;;;;;;3.97;2.05;;;8.80;99.90;;;;;;5076386;28;20305;-61
2023/11/07 01:23:19;;;;;;;4.50;2.10;;;8.80;99.90;;;;;;5076500;28;20239;-61
2023/11/07 01:25:47;;;;;;;3.63;1.67;;;8.80;99.90;;;;;;5076398;28;20201;-60
2023/11/07 01:28:15;;;;;;;4.38;1.90;;;8.80;99.90;;;;;;5076568;28;20197;-61
2023/11/07 01:30:42;;;;;;;2.90;2.00;;;8.80;99.90;;;;;;5076835;28;20572;-60
2023/11/07 01:33:09;;;;;;;4.95;2.22;;;8.80;99.90;;;;;;5078272;28;20224;-62
2023/11/07 01:35:36;;;;;;;5.65;1.70;;;8.90;99.90;;;;;;5077855;28;20209;-63
2023/11/07 01:38:03;;;;;;;4.55;2.03;;;8.90;99.90;;;;;;5078093;28;20213;-61
2023/11/07 01:40:30;;;;;;;2.75;1.83;;;8.90;99.90;;;;;;5075347;28;20666;-62
2023/11/07 01:42:58;;;;;;;4.65;2.63;;;8.90;99.90;;;;;;5076053;28;20229;-62
2023/11/07 01:45:25;;;;;;;4.13;2.28;;;8.90;99.90;;;;;;5076512;28;20645;-62
2023/11/07 01:47:52;;;;;;;9.52;2.53;;;9.00;99.90;;;;;;5075940;28;20705;-62
2023/11/07 01:50:19;;;;;;;3.55;1.85;;;9.00;99.90;;;;;;5075921;28;20202;-61
2023/11/07 01:52:46;;;;;;;4.95;1.95;;;9.00;99.90;;;;;;5075720;28;20278;-61
2023/11/07 01:55:16;;;;;;;3.03;2.22;;;9.00;99.90;;;;;;5075928;28;20229;-61
2023/11/07 01:57:45;;;;;;;1.98;1.50;;;9.00;99.90;;;;;;5075899;28;20228;-61
2023/11/07 02:00:14;;;;;;;4.85;2.75;;;9.00;99.90;;;;;;5076321;28;20201;-61
2023/11/07 02:02:41;;;;;;;6.60;2.47;;;9.00;99.90;;;;;;5075843;28;20227;-61
2023/11/07 02:05:09;;;;;;;4.85;2.40;;;9.10;99.90;;;;;;5076015;28;20674;-61
2023/11/07 02:07:36;;;;;;;6.30;2.50;;;9.10;99.90;;;;;;5075430;28;20733;-61
2023/11/07 02:10:04;;;;;;;5.57;2.25;;;9.00;99.90;;;;;;5075453;28;20200;-61
2023/11/07 02:12:31;;;;;;;5.80;2.20;;;9.00;99.90;;;;;;5075589;28;20312;-61
2023/11/07 02:14:58;;;;;;;5.57;2.65;;;9.10;99.90;;;;;;5075513;28;20201;-61
2023/11/07 02:17:26;;;;;;;3.30;2.00;;;9.10;99.90;;;;;;5076111;28;20228;-61
2023/11/07 02:19:53;;;;;;;7.32;3.33;;;9.10;99.90;;;;;;5075740;28;20207;-61
2023/11/07 02:22:23;;;;;;;3.17;1.95;;;9.20;99.90;;;;;;5075465;28;20221;-61
2023/11/07 02:24:53;;;;;;;4.43;2.53;;;9.20;99.90;;;;;;5076810;28;20215;-61
2023/11/07 02:27:22;;;;;;;4.63;1.83;;;9.20;99.90;;;;;;5076873;28;20663;-62
2023/11/07 02:29:48;;;;;;;6.13;2.42;;;9.20;99.90;;;;;;5078298;28;20201;-61
2023/11/07 02:32:15;;;;;;;6.07;2.70;;;9.10;99.90;;;;;;5076512;28;20228;-61
2023/11/07 02:34:42;;;;;;;6.63;2.65;;;9.10;99.90;;;;;;5076628;28;20204;-62
2023/11/07 02:37:09;;;;;;;5.38;2.65;;;9.10;99.90;;;;;;5076906;28;20197;-61
2023/11/07 02:39:36;;;;;;;4.30;2.15;;;9.00;99.90;;;;;;5078032;28;20207;-61
2023/11/07 02:42:04;;;;;;;6.45;1.92;;;9.00;99.90;;;;;;5077472;28;20707;-61
2023/11/07 02:44:31;;;;;;;3.08;1.90;;;9.00;99.90;;;;;;5077775;28;20215;-60
2023/11/07 02:46:58;;;;;;;3.90;1.95;;;9.00;99.90;;;;;;5076311;28;20212;-61
2023/11/07 02:49:24;;;;;;;5.15;2.42;;;9.00;99.90;;;;;;5076017;28;20219;-62
2023/11/07 02:51:51;;;;;;;4.80;2.25;;;9.00;99.90;;;;;;5075037;28;20710;-62
2023/11/07 02:54:18;;;;;;;4.78;2.35;;;9.00;99.90;;;;;;5076234;28;20220;-62
2023/11/07 02:56:44;;;;;;;2.42;2.00;;;9.10;99.90;;;;;;5076746;28;20205;-61
2023/11/07 02:59:13;;;;;;;8.00;2.30;;;9.00;99.90;;;;;;5076965;28;20232;-61
2023/11/07 03:01:39;;;;;;;3.78;1.90;;;9.00;99.90;;;;;;5077453;28;20231;-60
2023/11/07 03:04:06;;;;;;;3.40;2.05;;;9.00;99.90;;;;;;5076737;28;20207;-60
2023/11/07 03:06:33;;;;;;;5.35;1.98;;;9.10;99.90;;;;;;5076420;28;20204;-61
2023/11/07 03:09:00;;;;;;;4.65;1.88;;;9.10;99.90;;;;;;5076462;28;20197;-61
2023/11/07 03:11:26;;;;;;;2.90;1.90;;;9.20;99.90;;;;;;5075733;28;20209;-61
2023/11/07 03:13:54;;;;;;;4.15;1.75;;;9.20;99.90;;;;;;5076934;28;20201;-61
2023/11/07 03:16:22;;;;;;;2.30;1.48;;;9.20;99.90;;;;;;5076421;28;20204;-61
2023/11/07 03:18:49;;;;;;;5.50;2.00;;;9.30;99.90;;;;;;5076095;28;20590;-61
2023/11/07 03:21:16;;;;;;;6.55;2.22;;;9.30;99.90;;;;;;5076835;28;20639;-61
2023/11/07 03:23:42;;;;;;;5.90;1.90;;;9.30;99.90;;;;;;5076480;28;20216;-61
2023/11/07 03:26:10;;;;;;;3.20;2.00;;;9.40;99.90;;;;;;5077235;28;20284;-61
2023/11/07 03:28:37;;;;;;;3.13;2.10;;;9.40;99.90;;;;;;5077008;28;20604;-61
2023/11/07 03:31:03;;;;;;;11.40;2.03;;;9.40;99.90;;;;;;5076436;28;20570;-62
2023/11/07 03:33:32;;;;;;;3.00;1.10;;;9.30;99.90;;;;;;5076321;28;20225;-62
2023/11/07 03:36:00;;;;;;;4.13;1.80;;;9.30;99.90;;;;;;5076714;28;20213;-61
2023/11/07 03:38:27;;;;;;;4.80;1.40;;;9.30;99.90;;;;;;5076768;28;20217;-61
2023/11/07 03:40:54;;;;;;;3.73;2.00;;;9.20;99.90;;;;;;5077230;28;20631;-61
2023/11/07 03:43:22;;;;;;;4.53;2.30;;;9.20;99.90;;;;;;5077462;28;20459;-63
2023/11/07 03:45:49;;;;;;;4.93;2.00;;;9.20;99.90;;;;;;5076985;28;20208;-60
2023/11/07 03:48:15;;;;;;;6.20;1.95;;;9.20;99.90;;;;;;5077027;28;20197;-60
2023/11/07 03:50:44;;;;;;;7.43;1.55;;;9.20;99.90;;;;;;5077061;28;20201;-61
2023/11/07 03:53:10;;;;;;;3.53;1.50;;;9.20;99.90;;;;;;5077375;28;20232;-60
2023/11/07 03:55:37;;;;;;;5.43;1.92;;;9.20;99.90;;;;;;5077146;28;20201;-61
2023/11/07 03:58:04;;;;;;;4.55;1.73;;;9.30;99.90;;;;;;5077087;28;20706;-61
2023/11/07 04:00:31;;;;;;;1.60;1.42;;;9.30;99.90;;;;;;5077854;28;20582;-62
2023/11/07 04:02:57;;;;;;;3.05;1.40;;;9.40;99.90;;;;;;5076335;28;20217;-61
2023/11/07 04:05:24;;;;;;;2.80;1.73;;;9.40;99.90;;;;;;5079115;28;20249;-61
2023/11/07 04:07:52;;;;;;;3.63;1.63;;;9.50;99.90;;;;;;5078946;28;20197;-61
2023/11/07 04:12:29;;;;;;;2.97;2.00;;;9.50;99.90;;;;;;5097778;28;20631;-61
2023/11/07 04:14:56;;;;;;;6.88;1.73;;;9.60;99.90;;;;;;5097992;28;20935;-61
2023/11/07 04:17:23;;;;;;;3.87;2.37;;;9.50;99.90;;;;;;5096442;28;20664;-61
2023/11/07 04:19:50;;;;;;;4.68;2.03;;;9.50;99.90;;;;;;5095624;28;20442;-61
2023/11/07 04:22:17;;;;;;;3.23;1.50;;;9.50;99.90;;;;;;5096207;28;20295;-61
2023/11/07 04:24:44;;;;;;;3.90;1.60;;;9.40;99.90;;;;;;5095001;28;20468;-61
2023/11/07 04:27:11;;;;;;;4.53;3.10;;;9.40;99.90;;;;;;5093199;28;20692;-62
2023/11/07 04:29:40;;;;;;;6.18;3.75;;;9.30;99.90;;;;;;5094547;28;20442;-59
2023/11/07 04:32:07;;;;;;;4.90;3.42;;;9.20;99.90;;;;;;5092168;28;20250;-62
2023/11/07 04:34:34;;;;;;;3.85;2.65;;;9.20;99.90;;;;;;5096845;28;20207;-61
2023/11/07 04:37:01;;;;;;;2.92;2.45;;;9.20;99.90;;;;;;5097550;28;20610;-61
2023/11/07 04:39:28;;;;;;;4.47;2.05;;;9.20;99.90;;;;;;5097646;28;20204;-61
2023/11/07 04:41:55;;;;;;;3.97;1.60;;;9.20;99.90;;;;;;5096353;28;20235;-60
2023/11/07 04:44:21;;;;;;;4.25;1.63;;;9.10;99.90;;;;;;5093917;28;20810;-61
2023/11/07 04:46:50;;;;;;;5.57;2.13;;;9.10;99.90;;;;;;5092571;28;20208;-61
2023/11/07 04:49:16;;;;;;;3.10;2.10;;;9.10;99.90;;;;;;5093152;28;20303;-61
2023/11/07 04:51:43;;;;;;;3.03;1.90;;;9.10;99.90;;;;;;5094047;28;20600;-61
2023/11/07 04:54:10;;;;;;;4.80;2.28;;;9.00;99.90;;;;;;5098502;28;20204;-62
2023/11/07 04:56:37;;;;;;;4.82;2.40;;;9.00;99.90;;;;;;5098800;28;20196;-61
2023/11/07 04:59:04;;;;;;;2.88;2.13;;;9.00;99.90;;;;;;5098829;28;20205;-60
2023/11/07 05:01:30;;;;;;;9.18;2.75;;;9.00;99.90;;;;;;5098903;28;20674;-60
2023/11/07 05:03:59;;;;;;;7.15;2.20;;;9.00;99.90;;;;;;5097624;28;20197;-61
2023/11/07 05:06:27;;;;;;;4.53;1.58;;;9.00;99.90;;;;;;5094985;28;20223;-61
2023/11/07 05:08:54;;;;;;;4.25;2.33;;;9.00;99.90;;;;;;5093969;28;20201;-62
2023/11/07 05:11:21;;;;;;;2.38;1.67;;;9.10;99.90;;;;;;5094010;28;20722;-61
2023/11/07 05:13:48;;;;;;;5.38;1.60;;;9.20;99.90;;;;;;5093995;28;20201;-61
2023/11/07 05:16:14;;;;;;;2.97;1.83;;;9.30;99.90;;;;;;5092631;28;20253;-60
2023/11/07 05:18:41;;;;;;;3.45;2.15;;;9.40;99.90;;;;;;5094152;28;20211;-61
2023/11/07 05:21:09;;;;;;;4.18;2.50;;;9.40;99.90;;;;;;5093511;28;20196;-60
2023/11/07 05:23:37;;;;;;;2.65;1.77;;;9.50;99.90;;;;;;5083310;28;20221;-60
2023/11/07 05:26:06;;;;;;;4.07;2.17;;;9.50;99.90;;;;;;5085225;28;20201;-62
2023/11/07 05:28:32;;;;;;;3.77;1.80;;;9.50;99.90;;;;;;5085232;28;20201;-61
2023/11/07 05:30:59;;;;;;;4.32;1.80;;;9.50;99.90;;;;;;5087048;28;20482;-61
2023/11/07 05:33:26;;;;;;;4.07;1.40;;;9.50;99.90;;;;;;5090864;28;20228;-61
2023/11/07 05:35:53;;;;;;;3.05;1.75;;;9.40;99.90;;;;;;5087093;28;20205;-62
2023/11/07 05:38:22;;;;;;;3.83;1.25;;;9.40;99.90;;;;;;5084140;28;20540;-61
2023/11/07 05:40:48;;;;;;;2.15;1.50;;;9.40;99.90;;;;;;5083454;28;20212;-61
2023/11/07 05:43:15;;;;;;;2.95;1.60;;;9.30;99.90;;;;;;5080807;28;20312;-61
2023/11/07 05:45:42;;;;;;;3.78;1.27;;;9.30;99.90;;;;;;5079427;28;20203;-61
2023/11/07 05:48:09;;;;;;;2.55;1.20;;;9.30;99.90;;;;;;5079112;28;20242;-62
2023/11/07 05:50:36;;;;;;;2.60;1.25;;;9.40;99.90;;;;;;5078486;28;20205;-60
2023/11/07 05:53:04;;;;;;;2.38;2.00;;;9.50;99.90;;;;;;5081759;28;20221;-61
2023/11/07 05:55:32;;;;;;;2.05;1.38;;;9.50;99.90;;;;;;5085470;28;20236;-61
2023/11/07 05:57:59;;;;;;;6.03;1.77;;;9.50;99.90;;;;;;5080641;28;20201;-61
2023/11/07 06:00:25;;;;;;;3.50;1.50;;;9.60;99.90;;;;;;5081501;28;20439;-61
2023/11/07 06:02:52;;;;;;;3.20;1.33;;;9.60;99.90;;;;;;5080578;28;20591;-61
2023/11/07 06:05:20;;;;;;;2.75;1.60;;;9.60;99.90;;;;;;5080779;28;20497;-61
2023/11/07 06:07:48;;;;;;;2.85;1.30;;;9.60;99.90;;;;;;5079365;28;20205;-61
2023/11/07 06:10:19;;;;;;;5.95;1.67;;;9.70;99.90;;;;;;5079972;28;20265;-61
2023/11/07 06:12:47;;;;;;;3.47;1.50;;;9.70;99.90;;;;;;5079823;28;20225;-61
2023/11/07 06:15:14;;;;;;;4.73;1.70;;;9.70;99.90;;;;;;5080364;28;20201;-61
2023/11/07 06:17:41;;;;;;;2.63;1.50;;;9.80;99.90;;;;;;5080394;28;20443;-60
2023/11/07 06:20:09;;;;;;;3.77;1.50;;;9.80;99.90;;;;;;5081051;28;20211;-61
2023/11/07 06:22:36;;;;;;;3.67;1.50;;;9.80;99.90;;;;;;5079724;28;20482;-61
2023/11/07 06:25:04;;;;;;;1.55;1.20;;;9.80;99.90;;;;;;5079358;28;20454;-61
2023/11/07 06:27:32;;;;;;;2.20;1.27;;;9.80;99.90;;;;;;5078686;28;20209;-62
2023/11/07 06:30:00;;;;;;;2.60;1.20;;;9.80;99.90;;;;;;5079189;28;20448;-61
2023/11/07 06:32:27;;;;;;;4.80;2.20;;;9.80;99.90;;;;;;5080148;28;20231;-61
2023/11/07 06:34:54;;;;;;;4.40;1.57;;;9.70;99.90;;;;;;5080062;28;20209;-61
2023/11/07 06:37:21;;;;;;;3.20;1.47;;;9.70;99.90;;;;;;5080259;28;20467;-61
2023/11/07 06:39:49;;;;;;;3.40;1.80;;;9.60;99.90;;;;;;5082906;28;20463;-61
2023/11/07 06:42:17;;;;;;;6.10;1.77;;;9.60;99.90;;;;;;5084668;28;20833;-61
2023/11/07 06:44:44;;;;;;;3.63;1.80;;;9.60;99.90;;;;;;5083161;28;20330;-62
2023/11/07 06:47:12;;;;;;;2.45;1.38;;;9.60;99.90;;;;;;5080384;28;20443;-59
2023/11/07 06:49:39;;;;;;;4.23;1.80;;;9.70;99.90;;;;;;5080868;28;20204;-62
2023/11/07 06:52:06;;;;;;;4.10;1.80;;;9.70;99.90;;;;;;5079399;28;20552;-61
2023/11/07 06:54:33;;;;;;;3.72;1.70;;;9.70;99.90;;;;;;5080860;28;20447;-62
2023/11/07 06:57:00;;;;;;;5.90;1.83;;;9.80;99.90;;;;;;5080057;28;20205;-61
2023/11/07 06:59:27;;;;;;;3.13;1.53;;;9.80;99.90;;;;;;5079361;28;20439;-61
2023/11/07 07:01:54;;;;;;;4.50;1.67;;;9.80;99.90;;;;;;5078693;28;20546;-61
2023/11/07 07:04:22;;;;;;;2.80;1.30;;;9.80;99.90;;;;;;5078406;28;20493;-61
2023/11/07 07:06:49;;;;;;;2.30;1.53;;;9.90;99.90;;;;;;5078507;28;20439;-60
2023/11/07 07:09:18;;;;;;;4.03;1.40;;;10.00;99.90;;;;;;5078328;28;20545;-61
2023/11/07 07:11:47;;;;;;;6.50;1.50;;;10.10;99.90;;;;;;5080415;28;20517;-60
2023/11/07 07:14:14;;;;;;;8.40;4.40;;;10.20;99.90;;;;;;5077966;28;20858;-61
2023/11/07 07:16:40;;;;;;;5.80;1.60;;;10.40;99.90;;;;;;5080286;28;20542;-61
2023/11/07 07:19:08;;;;;;;2.40;1.60;;;10.60;99.90;;;;;;5079595;28;20439;-61
2023/11/07 07:21:36;;;;;;;6.07;2.30;;;10.70;99.90;;;;;;5078352;28;20445;-60
2023/11/07 07:24:15;;;;;;;2.90;1.60;;;10.80;99.90;;;;;;5078760;28;20884;-60
2023/11/07 07:26:43;;;;;;;4.87;1.60;;;10.90;99.90;;;;;;5077774;28;20928;-61
2023/11/07 07:29:13;;;;;;;2.20;1.40;;;10.90;99.90;;;;;;5080031;28;20447;-62
2023/11/07 07:31:39;;;;;;;3.37;1.90;;;11.00;99.90;;;;;;5078424;28;20510;-59
2023/11/07 07:34:06;;;;;;;3.67;2.40;;;10.90;99.90;;;;;;5077113;28;20439;-61
2023/11/07 07:36:42;;;;;;;3.47;1.70;;;10.90;99.90;;;;;;5077091;28;20443;-61
2023/11/07 07:39:26;;;;;;;2.53;1.97;;;10.90;99.90;;;;;;5078070;28;20431;-61
2023/11/07 07:41:55;;;;;;;2.93;1.67;;;10.90;99.90;;;;;;5077938;28;20460;-60
2023/11/07 07:44:24;;;;;;;3.27;1.13;;;11.00;99.90;;;;;;5077813;28;20447;-62
2023/11/07 07:46:51;;;;;;;4.00;1.53;;;11.00;99.90;;;;;;5078507;28;20519;-61
2023/11/07 07:49:22;;;;;;;3.63;1.50;;;11.00;99.90;;;;;;5078486;28;20446;-61
2023/11/07 07:51:53;;;;;;;4.83;1.63;;;11.00;99.90;;;;;;5078679;28;20517;-61
2023/11/07 07:54:22;;;;;;;2.80;1.10;;;11.00;99.90;;;;;;5078593;28;20481;-61
2023/11/07 07:56:50;;;;;;;3.10;1.97;;;11.10;99.90;;;;;;5078084;28;20451;-61
2023/11/07 07:59:17;;;;;;;6.40;1.20;;;11.00;99.90;;;;;;5076163;28;20439;-61
2023/11/07 08:01:43;;;;;;;6.77;1.60;;;11.10;99.90;;;;;;5076369;28;20455;-61
2023/11/07 08:04:12;;;;;;;6.70;1.70;;;11.10;99.90;;;;;;5076324;28;20814;-61
2023/11/07 08:06:39;;;;;;;3.20;1.20;;;11.10;99.90;;;;;;5075595;28;20440;-61
2023/11/07 08:09:06;;;;;;;3.47;1.43;;;11.10;99.90;;;;;;5076931;28;20447;-60
2023/11/07 08:11:41;;;;;;;2.60;1.90;;;11.10;99.90;;;;;;5077113;28;21001;-62
2023/11/07 08:14:08;;;;;;;1.90;1.60;;;11.10;99.90;;;;;;5079266;28;20483;-61
2023/11/07 08:16:36;;;;;;;3.63;1.60;;;11.20;99.90;;;;;;5079065;28;20447;-61
2023/11/07 08:19:03;;;;;;;3.00;1.43;;;11.30;99.90;;;;;;5077174;28;20455;-61
2023/11/07 08:21:30;;;;;;;3.87;2.63;;;11.40;99.90;;;;;;5078616;28;20963;-60
2023/11/07 08:23:57;;;;;;;2.40;1.50;;;11.50;99.90;;;;;;5079216;28;20443;-61
2023/11/07 08:26:24;;;;;;;2.27;1.17;;;11.50;99.90;;;;;;5078105;28;20479;-60
2023/11/07 08:28:52;;;;;;;6.63;1.63;;;11.60;99.90;;;;;;5076331;28;20443;-61
2023/11/07 08:31:19;;;;;;;4.87;1.63;;;11.60;99.90;;;;;;5078032;28;20450;-61
2023/11/07 08:33:47;;;;;;;2.50;1.17;;;11.70;99.90;;;;;;5078739;28;20490;-61
2023/11/07 08:36:14;;;;;;;4.93;1.17;;;11.80;99.90;;;;;;5079125;28;20447;-61
2023/11/07 08:38:41;;;;;;;3.77;1.30;;;11.90;99.90;;;;;;5079336;28;20443;-61
2023/11/07 08:41:08;;;;;;;2.73;1.37;;;11.90;99.90;;;;;;5078752;28;20932;-61
2023/11/07 08:43:36;;;;;;;2.70;1.27;;;12.00;99.90;;;;;;5078690;28;20479;-61
2023/11/07 08:46:05;;;;;;;6.50;1.60;;;12.10;99.90;;;;;;5080309;28;20531;-61
2023/11/07 08:48:34;;;;;;;3.30;1.07;;;12.20;99.90;;;;;;5079780;28;20454;-61
2023/11/07 08:51:02;;;;;;;8.10;1.53;;;12.30;99.90;;;;;;5079374;28;20474;-61
2023/11/07 08:53:28;;;;;;;1.83;1.10;;;12.30;99.90;;;;;;5079222;28;20537;-60
2023/11/07 08:55:55;;;;;;;2.50;1.40;;;12.30;99.90;;;;;;5080948;28;20439;-60
2023/11/07 08:58:22;;;;;;;4.50;1.13;;;12.30;99.90;;;;;;5082255;28;20538;-62
2023/11/07 09:00:51;;;;;;;1.60;1.13;;;12.30;99.90;;;;;;5084111;28;20451;-62
2023/11/07 09:03:19;;;;;;;3.40;1.13;;;12.30;99.90;;;;;;5082774;28;20493;-61
2023/11/07 09:05:46;;;;;;;11.77;2.00;;;12.40;99.90;;;;;;5083836;28;20477;-61
2023/11/07 09:08:13;;;;;;;23.53;4.30;;;12.40;99.90;;;;;;5085367;28;20465;-62
2023/11/07 09:10:39;;;;;;;2.33;1.30;;;12.40;99.90;;;;;;5082577;28;20465;-61
2023/11/07 09:13:07;;;;;;;7.10;1.83;;;12.50;99.90;;;;;;5080996;28;20486;-61
2023/11/07 09:15:34;;;;;;;3.73;1.60;;;12.50;99.90;;;;;;5081982;28;20465;-61
2023/11/07 09:18:01;;;;;;;1.93;1.00;;;12.50;99.90;;;;;;5080723;28;20443;-61
2023/11/07 09:20:29;;;;;;;3.33;1.00;;;12.60;99.90;;;;;;5082120;28;20435;-60
2023/11/07 09:22:56;;;;;;;2.80;1.20;;;12.70;99.90;;;;;;5081085;28;20462;-61
2023/11/07 09:25:23;;;;;;;2.67;1.10;;;12.70;99.90;;;;;;5082047;28;20534;-61
2023/11/07 09:27:51;;;;;;;3.50;1.37;;;12.70;99.90;;;;;;5080712;28;20936;-62
2023/11/07 09:30:19;;;;;;;3.03;1.13;;;12.70;99.90;;;;;;5080916;28;20443;-60
2023/11/07 09:32:48;;;;;;;4.23;0.93;;;12.80;99.90;;;;;;5082029;28;20479;-60
2023/11/07 09:35:15;;;;;;;6.83;1.57;;;12.80;99.90;;;;;;5079137;28;20444;-61
2023/11/07 09:37:43;;;;;;;4.73;1.00;;;12.80;99.90;;;;;;5079321;28;20450;-61
2023/11/07 09:40:17;;;;;;;10.97;1.60;;;12.80;99.90;;;;;;5079688;28;20445;-61
2023/11/07 09:42:45;;;;;;;6.90;1.27;;;12.80;99.90;;;;;;5080932;28;20459;-61
2023/11/07 09:45:14;;;;;;;1.93;0.77;;;12.80;99.90;;;;;;5080236;28;20443;-62
2023/11/07 09:47:45;;;;;;;1.80;0.90;;;12.80;99.90;;;;;;5079008;28;20451;-61
2023/11/07 09:50:12;;;;;;;1.80;0.97;;;12.80;99.90;;;;;;5079157;28;20424;-61
2023/11/07 09:52:40;;;;;;;8.43;1.40;;;12.90;99.90;;;;;;5078351;28;20522;-61
2023/11/07 09:55:11;;;;;;;5.27;1.30;;;12.90;99.90;;;;;;5079517;28;20534;-62
2023/11/07 09:57:41;;;;;;;5.03;1.50;;;12.90;99.90;;;;;;5077597;28;20431;-61
2023/11/07 10:00:10;;;;;;;1.83;1.00;;;12.90;99.90;;;;;;5078473;28;20424;-61
2023/11/07 10:02:37;;;;;;;3.33;1.30;;;13.00;99.90;;;;;;5078185;28;20459;-62
2023/11/07 10:05:06;;;;;;;1.90;0.90;;;13.10;99.90;;;;;;5079393;28;20447;-63
2023/11/07 10:07:32;;;;;;;1.50;1.00;;;13.20;99.90;;;;;;5078335;28;20443;-62
2023/11/07 10:10:05;;;;;;;2.37;1.03;;;13.30;99.90;;;;;;5077013;28;20454;-61
2023/11/07 10:12:34;;;;;;;1.47;0.90;;;13.40;99.80;;;;;;5077423;28;20507;-61
2023/11/07 10:15:15;;;;;;;1.53;1.10;;;13.60;99.50;;;;;;5077691;28;20441;-61
2023/11/07 10:17:57;;;;;;;1.40;1.13;;;13.70;98.80;;;;;;5077433;28;20416;-61
2023/11/07 10:20:24;;;;;;;2.97;1.13;;;13.70;98.20;;;;;;5077895;28;20430;-61
2023/11/07 10:22:51;;;;;;;4.40;1.20;;;13.80;98.00;;;;;;5078194;28;20513;-60
2023/11/07 10:25:28;;;;;;;3.37;1.40;;;13.90;97.60;;;;;;5078287;28;20451;-61
2023/11/07 10:27:59;;;;;;;1.67;1.00;;;14.10;97.00;;;;;;5077427;28;20445;-61
2023/11/07 10:30:36;;;;;;;1.90;0.93;;;14.20;96.30;;;;;;5077580;28;21000;-61
2023/11/07 10:33:03;;;;;;;3.50;1.30;;;14.30;95.50;;;;;;5077082;28;20483;-61
2023/11/07 10:35:30;;;;;;;1.93;1.10;;;14.30;95.40;;;;;;5077079;28;20482;-61
2023/11/07 10:37:57;;;;;;;2.20;1.13;;;14.40;95.30;;;;;;5077444;28;20445;-62
2023/11/07 10:40:24;;;;;;;4.30;1.60;;;14.40;94.70;;;;;;5077131;28;20451;-60
2023/11/07 10:42:51;;;;;;;1.90;1.30;;;14.30;94.70;;;;;;5076309;28;20464;-61
2023/11/07 10:45:21;;;;;;;3.90;1.30;;;14.40;94.60;;;;;;5076615;28;20822;-61
2023/11/07 10:47:49;;;;;;;3.90;1.50;;;14.30;94.30;;;;;;5076788;28;20424;-61
2023/11/07 10:50:17;;;;;;;2.17;1.10;;;14.30;94.00;;;;;;5075742;28;20439;-60
2023/11/07 10:52:47;;;;;;;3.77;1.10;;;14.30;93.80;;;;;;5076217;28;20475;-61
2023/11/07 10:55:14;;;;;;;4.07;0.70;;;14.10;93.40;;;;;;5077667;28;20431;-60
2023/11/07 10:57:46;;;;;;;1.97;0.80;;;13.90;93.30;;;;;;5078313;28;20443;-61
2023/11/07 11:00:20;;;;;;;2.50;1.03;;;13.80;93.20;;;;;;5083207;28;20442;-61
2023/11/07 11:02:53;;;;;;;2.53;1.17;;;13.60;93.20;;;;;;5079789;28;20468;-62
2023/11/07 11:05:23;;;;;;;5.27;1.77;;;13.30;93.40;;;;;;5077109;28;20420;-61
2023/11/07 11:07:52;;;;;;;3.50;1.20;;;13.20;93.90;;;;;;5076928;28;20522;-61
2023/11/07 11:10:21;;;;;;;4.40;1.63;;;13.20;94.30;;;;;;5076266;28;20469;-61
2023/11/07 11:12:50;;;;;;;3.57;1.30;;;13.10;94.50;;;;;;5078590;28;20483;-60
2023/11/07 11:15:18;;;;;;;1.47;1.20;;;13.10;94.70;;;;;;5078911;28;20555;-61
2023/11/07 11:17:52;;;;;;;3.63;1.47;;;13.00;94.80;;;;;;5078525;28;20450;-61
2023/11/07 11:20:22;;;;;;;1.83;1.20;;;12.90;94.70;;;;;;5078277;28;20420;-62
2023/11/07 11:22:56;;;;;;;4.47;1.37;;;12.80;94.90;;;;;;5079343;28;20803;-61
2023/11/07 11:25:31;;;;;;;1.50;1.00;;;12.80;95.10;;;;;;5078201;28;20477;-60
2023/11/07 11:28:01;;;;;;;1.30;1.20;;;12.70;95.30;;;;;;5077317;28;20893;-60
2023/11/07 11:30:29;;;;;;;2.97;1.30;;;12.80;95.60;;;;;;5078618;28;20451;-60
2023/11/07 11:33:07;;;;;;;2.17;1.20;;;12.80;95.30;;;;;;5077599;28;20491;-61
2023/11/07 11:35:38;;;;;;;3.80;1.23;;;12.80;95.20;;;;;;5078071;28;20432;-61
2023/11/07 11:38:13;;;;;;;2.10;1.33;;;12.80;95.10;;;;;;5077915;28;20526;-61
2023/11/07 11:40:54;;;;;;;2.43;1.80;;;12.90;95.20;;;;;;5077945;28;20812;-61
2023/11/07 11:43:22;;;;;;;3.97;1.90;;;12.80;95.10;;;;;;5080263;28;20459;-61
2023/11/07 11:45:49;;;;;;;3.47;2.00;;;12.80;95.40;;;;;;5079964;28;20439;-61
2023/11/07 11:48:19;;;;;;;4.70;1.50;;;12.80;95.70;;;;;;5079612;28;20877;-62
2023/11/07 11:50:46;;;;;;;2.60;1.40;;;12.70;96.10;;;;;;5078452;28;20451;-60
2023/11/07 11:53:35;;;;;;;2.70;1.43;;;12.60;96.70;;;;;;5078748;28;20483;-62
2023/11/07 11:56:12;;;;;;;1.67;1.10;;;12.50;97.30;;;;;;5080981;28;20481;-61
2023/11/07 11:59:01;;;;;;;2.80;1.40;;;12.50;97.90;;;;;;5078544;28;20423;-61
2023/11/07 12:01:32;;;;;;;2.20;1.20;;;12.60;98.30;;;;;;5079691;28;20428;-61
2023/11/07 12:04:01;;;;;;;3.57;1.23;;;12.60;98.40;;;;;;5080286;28;20912;-61
2023/11/07 12:06:27;;;;;;;2.10;1.13;;;12.60;98.60;;;;;;5080411;28;20449;-61
2023/11/07 12:08:55;;;;;;;2.13;1.23;;;12.60;98.80;;;;;;5080236;28;20443;-61
2023/11/07 12:11:23;;;;;;;2.90;1.43;;;12.70;98.90;;;;;;5079736;28;20483;-61
2023/11/07 12:13:51;;;;;;;2.00;1.67;;;12.70;98.90;;;;;;5078343;28;20471;-61
2023/11/07 12:16:20;;;;;;;2.80;1.50;;;12.80;98.80;;;;;;5077955;28;20537;-60
2023/11/07 12:18:50;;;;;;;1.97;1.40;;;12.80;98.40;;;;;;5078432;28;20516;-61
2023/11/07 12:21:27;;;;;;;2.73;1.60;;;12.80;98.10;;;;;;5078516;28;20945;-62
2023/11/07 12:23:57;;;;;;;1.43;1.20;;;12.80;97.90;;;;;;5077823;28;20439;-63
2023/11/07 12:26:38;;;;;;;3.83;1.37;;;12.80;97.80;;;;;;5077577;28;20432;-62
2023/11/07 12:29:06;;;;;;;1.77;1.37;;;12.70;97.90;;;;;;5078316;28;20424;-61
2023/11/07 12:31:35;;;;;;;2.20;1.23;;;12.70;97.80;;;;;;5077312;28;20446;-61
2023/11/07 12:34:02;;;;;;;2.60;1.50;;;12.60;97.80;;;;;;5081041;28;20492;-61
2023/11/07 12:36:31;;;;;;;3.77;1.53;;;12.70;97.90;;;;;;5079715;28;20444;-60
2023/11/07 12:38:59;;;;;;;2.60;1.40;;;12.70;97.90;;;;;;5080328;28;20443;-62
2023/11/07 12:41:27;;;;;;;4.53;2.20;;;12.70;97.90;;;;;;5079710;28;20477;-60
2023/11/07 12:43:53;;;;;;;2.37;1.30;;;12.90;97.70;;;;;;5080674;28;20439;-61
2023/11/07 12:46:20;;;;;;;2.73;1.37;;;13.00;97.30;;;;;;5079600;28;20449;-61
2023/11/07 12:48:47;;;;;;;1.90;1.00;;;13.00;96.80;;;;;;5079606;28;20449;-61
2023/11/07 12:51:21;;;;;;;1.77;1.20;;;13.10;96.80;;;;;;5080682;28;20451;-62
2023/11/07 12:53:51;;;;;;;1.60;1.50;;;13.10;96.70;;;;;;5083293;28;20463;-61
2023/11/07 12:56:19;;;;;;;1.87;1.37;;;13.10;96.30;;;;;;5080127;28;20450;-62
2023/11/07 12:58:46;;;;;;;1.87;1.50;;;13.10;96.10;;;;;;5079544;28;20447;-62
2023/11/07 13:01:13;;;;;;;3.53;0.90;;;13.10;96.00;;;;;;5080450;28;20881;-61